Terminal Aerodrome Forecast
Issued by NWS

Current Version | Previous Version | Text Only | Print | Product List | Glossary On
Versions: 1 2 3 4 5 6 7 8 9 10 11 12 13 14 15 16 17 18 19 20 21 22 23 24 25 26 27 28 29 30 31 32 33 34 35 36 37 38 39 40 41 42 43 44
209
FTUS45 KGJT 010206 AAA
TAFEGE
TAF AMD
KEGE 010206Z 0102/0124 00000KT P6SM SCT035 BKN050 OVC060
     FM011800 09006KT P6SM BKN070
      AMD LTD TO CLD VIS AND WIND TIL 011300=

USA.gov is the U.S. government's official web portal to all federal, state and local government web resources and services.